createdAt,value
2023-05-24T00:00:56.768Z,59.72
2023-05-24T00:03:24.424Z,59.84
2023-05-24T00:05:52.464Z,60.00
2023-05-24T00:08:19.792Z,59.88
2023-05-24T00:10:48.464Z,59.62
2023-05-24T00:13:15.674Z,59.85
2023-05-24T00:15:42.879Z,59.71
2023-05-24T00:18:10.382Z,59.84
2023-05-24T00:20:37.700Z,60.13
2023-05-24T00:23:05.018Z,60.15
2023-05-24T00:25:32.564Z,60.22
2023-05-24T00:28:00.077Z,60.46
2023-05-24T00:30:27.455Z,60.23
2023-05-24T00:32:55.917Z,60.24
2023-05-24T00:35:23.625Z,60.16
2023-05-24T00:37:51.100Z,60.34
2023-05-24T00:40:18.661Z,60.15
2023-05-24T00:42:46.092Z,60.22
2023-05-24T00:45:13.278Z,60.10
2023-05-24T00:47:40.835Z,60.05
2023-05-24T00:50:08.624Z,60.13
2023-05-24T00:52:36.385Z,60.25
2023-05-24T00:55:04.046Z,60.45
2023-05-24T00:57:31.268Z,60.79
2023-05-24T00:59:58.498Z,60.91
2023-05-24T01:02:27.781Z,61.20
2023-05-24T01:04:56.213Z,61.05
2023-05-24T01:07:33.930Z,61.00
2023-05-24T01:10:13.590Z,61.03
2023-05-24T01:12:45.446Z,61.03
2023-05-24T01:15:21.839Z,61.24
2023-05-24T01:17:49.073Z,61.29
2023-05-24T01:20:17.062Z,61.10
2023-05-24T01:23:24.554Z,60.95
2023-05-24T01:26:01.657Z,61.11
2023-05-24T01:28:28.862Z,60.96
2023-05-24T01:30:56.344Z,61.08
2023-05-24T01:33:24.053Z,61.00
2023-05-24T01:35:51.256Z,61.10
2023-05-24T01:38:19.060Z,61.35
2023-05-24T01:40:47.306Z,61.18
2023-05-24T01:43:15.968Z,61.55
2023-05-24T01:46:03.432Z,61.49
2023-05-24T01:48:42.824Z,61.53
2023-05-24T01:51:12.064Z,61.56
2023-05-24T01:53:40.769Z,61.84
2023-05-24T01:56:08.065Z,61.57
2023-05-24T01:58:35.609Z,62.15
2023-05-24T02:01:02.931Z,61.64
2023-05-24T02:03:31.305Z,61.68
2023-05-24T02:05:58.670Z,61.96
2023-05-24T02:08:25.882Z,61.68
2023-05-24T02:10:53.423Z,61.80
2023-05-24T02:13:20.897Z,61.51
2023-05-24T02:15:48.144Z,61.40
2023-05-24T02:18:18.717Z,61.50
2023-05-24T02:20:46.916Z,61.43
2023-05-24T02:23:14.556Z,61.52
2023-05-24T02:25:42.236Z,61.50
2023-05-24T02:28:09.441Z,61.43
2023-05-24T02:30:36.838Z,61.48
2023-05-24T02:33:05.446Z,61.18
2023-05-24T02:35:33.622Z,61.28
2023-05-24T02:38:01.597Z,61.47
2023-05-24T02:40:29.143Z,61.50
2023-05-24T02:42:56.617Z,61.66
2023-05-24T02:45:23.774Z,61.71
2023-05-24T02:47:51.283Z,61.94
2023-05-24T02:50:18.678Z,61.85
2023-05-24T02:52:45.884Z,61.79
2023-05-24T02:55:13.383Z,61.88
2023-05-24T02:57:42.198Z,61.74
2023-05-24T03:00:11.571Z,61.95
2023-05-24T03:02:41.177Z,61.71
2023-05-24T03:05:08.937Z,61.88
2023-05-24T03:07:36.494Z,62.17
2023-05-24T03:10:04.156Z,61.95
2023-05-24T03:12:31.566Z,62.34
2023-05-24T03:14:58.807Z,62.65
2023-05-24T03:17:26.550Z,62.51
2023-05-24T03:19:53.869Z,62.29
2023-05-24T03:22:21.123Z,62.37
2023-05-24T03:24:48.900Z,62.33
2023-05-24T03:27:16.441Z,62.14
2023-05-24T03:29:43.619Z,62.15
2023-05-24T03:32:11.704Z,62.88
2023-05-24T03:34:38.896Z,62.69
2023-05-24T03:37:06.236Z,62.59
2023-05-24T03:39:33.764Z,62.88
2023-05-24T03:42:01.562Z,63.05
2023-05-24T03:44:28.759Z,63.40
2023-05-24T03:46:56.384Z,63.43
2023-05-24T03:49:24.347Z,63.67
2023-05-24T03:51:51.544Z,63.44
2023-05-24T03:54:19.140Z,63.38
2023-05-24T03:56:46.609Z,63.10
2023-05-24T03:59:13.893Z,63.07
2023-05-24T04:01:41.375Z,62.98
2023-05-24T04:04:08.884Z,62.55
2023-05-24T04:06:36.890Z,62.92
2023-05-24T04:09:05.815Z,62.77
2023-05-24T04:11:33.428Z,62.73
2023-05-24T04:14:00.791Z,62.67
2023-05-24T04:16:28.765Z,62.75
2023-05-24T04:18:57.438Z,62.70
2023-05-24T04:21:24.738Z,62.86
2023-05-24T04:23:53.519Z,63.01
2023-05-24T04:26:21.880Z,63.32
2023-05-24T04:28:50.920Z,63.34
2023-05-24T04:31:18.163Z,63.94
2023-05-24T04:33:47.868Z,63.81
2023-05-24T04:36:15.185Z,64.41
2023-05-24T04:38:42.354Z,64.20
2023-05-24T04:41:10.226Z,63.91
2023-05-24T04:43:37.407Z,64.31
2023-05-24T04:46:05.428Z,63.82
2023-05-24T04:48:34.391Z,64.01
2023-05-24T04:51:01.584Z,64.87
2023-05-24T04:53:29.046Z,64.42
2023-05-24T04:55:56.501Z,64.68
2023-05-24T04:58:23.742Z,64.63
2023-05-24T05:00:51.207Z,64.63
2023-05-24T05:03:18.911Z,64.70
2023-05-24T05:05:46.622Z,64.93
2023-05-24T05:08:14.085Z,65.32
2023-05-24T05:10:42.550Z,65.00
2023-05-24T05:13:09.988Z,65.30
2023-05-24T05:15:37.295Z,64.87
2023-05-24T05:18:04.798Z,64.30
2023-05-24T05:20:32.081Z,64.27
2023-05-24T05:22:59.352Z,63.28
2023-05-24T05:25:26.903Z,63.08
2023-05-24T05:27:54.109Z,62.82
2023-05-24T05:30:21.352Z,62.13
2023-05-24T05:32:48.885Z,61.40
2023-05-24T05:35:16.152Z,61.31
2023-05-24T05:37:43.417Z,61.43
2023-05-24T05:40:11.208Z,60.68
2023-05-24T05:42:38.402Z,60.70
2023-05-24T05:45:05.897Z,60.20
2023-05-24T05:47:33.421Z,59.25
2023-05-24T05:50:00.749Z,58.11
2023-05-24T05:52:27.975Z,58.65
2023-05-24T05:54:55.803Z,57.87
2023-05-24T05:57:24.407Z,58.10
2023-05-24T05:59:51.786Z,57.68
2023-05-24T06:02:19.415Z,57.63
2023-05-24T06:04:47.039Z,57.06
2023-05-24T06:07:14.249Z,56.22
2023-05-24T06:09:41.785Z,56.20
2023-05-24T06:12:09.351Z,55.77
2023-05-24T06:14:38.437Z,54.89
2023-05-24T06:17:06.154Z,54.29
2023-05-24T06:19:33.862Z,54.72
2023-05-24T06:22:01.716Z,54.44
2023-05-24T06:24:29.005Z,54.50
2023-05-24T06:26:56.669Z,53.47
2023-05-24T06:29:25.213Z,53.70
2023-05-24T06:31:52.684Z,53.29
2023-05-24T06:34:23.219Z,53.24
2023-05-24T06:36:51.624Z,52.79
2023-05-24T06:39:19.261Z,53.02
2023-05-24T06:41:47.376Z,53.15
2023-05-24T06:44:14.896Z,52.95
2023-05-24T06:46:42.496Z,53.15
2023-05-24T06:49:10.070Z,53.48
2023-05-24T06:51:38.238Z,53.12
2023-05-24T06:54:05.704Z,53.37
2023-05-24T06:56:33.220Z,53.05
2023-05-24T06:59:00.686Z,52.75
2023-05-24T07:01:29.220Z,52.87
2023-05-24T07:03:56.964Z,52.70
2023-05-24T07:06:25.142Z,51.76
2023-05-24T07:08:52.410Z,51.48
2023-05-24T07:11:19.937Z,51.72
2023-05-24T07:13:47.251Z,51.67
2023-05-24T07:16:14.492Z,51.20
2023-05-24T07:18:42.216Z,51.86
2023-05-24T07:21:09.655Z,51.52
2023-05-24T07:23:37.389Z,51.77
2023-05-24T07:26:05.187Z,51.12
2023-05-24T07:28:32.479Z,51.00
2023-05-24T07:30:59.726Z,51.17
2023-05-24T07:33:27.338Z,51.00
2023-05-24T07:35:54.859Z,50.96
2023-05-24T07:38:22.424Z,50.35
2023-05-24T07:40:49.977Z,50.37
2023-05-24T07:43:17.202Z,50.19
2023-05-24T07:45:44.474Z,49.80
2023-05-24T07:48:12.235Z,49.88
2023-05-24T07:50:39.645Z,49.06
2023-05-24T07:53:07.246Z,49.20
2023-05-24T07:55:34.773Z,48.58
2023-05-24T07:58:01.970Z,47.55
2023-05-24T08:00:29.967Z,48.56
2023-05-24T08:02:57.557Z,49.36
2023-05-24T08:05:24.801Z,48.79
2023-05-24T08:07:53.419Z,49.75
2023-05-24T08:10:21.006Z,48.79
2023-05-24T08:12:50.335Z,48.11
2023-05-24T08:15:17.608Z,48.93
2023-05-24T08:17:45.311Z,48.28
2023-05-24T08:20:16.802Z,47.37
2023-05-24T08:22:44.135Z,48.04
2023-05-24T08:25:11.765Z,46.87
2023-05-24T08:27:39.005Z,47.04
2023-05-24T08:30:07.034Z,45.90
2023-05-24T08:32:34.586Z,46.81
2023-05-24T08:35:18.394Z,47.03
2023-05-24T08:37:48.981Z,46.22
2023-05-24T08:40:16.726Z,45.94
2023-05-24T08:42:44.378Z,45.90
2023-05-24T08:45:12.856Z,45.95
2023-05-24T08:47:40.680Z,46.69
2023-05-24T08:50:08.590Z,47.06
2023-05-24T08:52:36.417Z,46.78
2023-05-24T08:55:04.874Z,46.58
2023-05-24T08:57:32.614Z,47.20
2023-05-24T09:00:00.387Z,46.28
2023-05-24T09:02:27.569Z,46.52
2023-05-24T09:04:54.956Z,46.15
2023-05-24T09:07:25.347Z,47.53
2023-05-24T09:10:04.125Z,46.53
2023-05-24T09:12:38.210Z,47.77
2023-05-24T09:15:07.144Z,47.39
2023-05-24T09:17:35.030Z,46.66
2023-05-24T09:20:02.883Z,45.06
2023-05-24T09:22:31.192Z,44.85
2023-05-24T09:25:00.676Z,46.28
2023-05-24T09:27:27.992Z,45.08
2023-05-24T09:29:55.733Z,45.56
2023-05-24T09:32:24.444Z,45.34
2023-05-24T09:34:53.546Z,45.43
2023-05-24T09:37:25.548Z,45.67
2023-05-24T09:39:55.555Z,44.71
2023-05-24T09:42:28.127Z,45.19
2023-05-24T09:45:02.005Z,44.89
2023-05-24T09:47:29.975Z,46.69
2023-05-24T09:49:58.042Z,45.15
2023-05-24T09:52:25.353Z,45.11
2023-05-24T09:54:52.707Z,43.43
2023-05-24T09:57:22.796Z,44.34
2023-05-24T09:59:50.278Z,44.39
2023-05-24T10:02:20.556Z,45.11
2023-05-24T10:04:48.287Z,43.75
2023-05-24T10:07:16.224Z,44.70
2023-05-24T10:09:43.643Z,44.58
2023-05-24T10:12:11.198Z,43.44
2023-05-24T10:14:38.784Z,43.01
2023-05-24T10:17:06.528Z,42.48
2023-05-24T10:19:34.689Z,43.11
2023-05-24T10:22:04.339Z,43.92
2023-05-24T10:24:47.251Z,44.25
2023-05-24T10:27:16.239Z,43.59
2023-05-24T10:29:45.262Z,42.38
2023-05-24T10:32:15.689Z,43.24
2023-05-24T10:34:43.317Z,42.96
2023-05-24T10:37:10.658Z,42.89
2023-05-24T10:39:37.893Z,43.51
2023-05-24T10:42:09.548Z,42.96
2023-05-24T10:44:37.369Z,41.39
2023-05-24T10:47:09.567Z,41.60
2023-05-24T10:49:37.295Z,42.63
2023-05-24T10:52:08.799Z,42.25
2023-05-24T10:54:36.947Z,42.54
2023-05-24T10:57:04.819Z,41.69
2023-05-24T10:59:34.947Z,42.31
2023-05-24T11:02:02.526Z,42.03
2023-05-24T11:04:34.245Z,41.83
2023-05-24T11:07:03.102Z,41.15
2023-05-24T11:09:30.713Z,42.78
2023-05-24T11:12:04.663Z,41.51
2023-05-24T11:14:32.427Z,40.80
2023-05-24T11:17:02.860Z,40.97
2023-05-24T11:19:34.182Z,42.08
2023-05-24T11:22:02.724Z,41.12
2023-05-24T11:24:30.348Z,40.79
2023-05-24T11:26:57.521Z,40.06
2023-05-24T11:29:25.190Z,39.79
2023-05-24T11:32:05.073Z,40.38
2023-05-24T11:34:33.131Z,39.72
2023-05-24T11:37:00.707Z,39.11
2023-05-24T11:39:31.247Z,39.94
2023-05-24T11:41:59.224Z,38.57
2023-05-24T11:44:26.776Z,38.29
2023-05-24T11:46:58.257Z,38.46
2023-05-24T11:49:26.264Z,39.43
2023-05-24T11:51:54.474Z,40.03
2023-05-24T11:54:22.626Z,40.49
2023-05-24T11:56:50.286Z,39.78
2023-05-24T11:59:17.986Z,39.11
2023-05-24T12:01:45.444Z,39.44
2023-05-24T12:04:13.439Z,40.06
2023-05-24T12:06:41.386Z,40.52
2023-05-24T12:09:10.335Z,40.50
2023-05-24T12:11:39.471Z,39.29
2023-05-24T12:14:07.389Z,39.37
2023-05-24T12:16:35.877Z,39.08
2023-05-24T12:19:09.452Z,37.72
2023-05-24T12:21:41.807Z,38.51
2023-05-24T12:24:12.420Z,37.61
2023-05-24T12:26:43.302Z,38.09
2023-05-24T12:29:11.725Z,37.96
2023-05-24T12:31:43.159Z,36.97
2023-05-24T12:34:11.698Z,38.02
2023-05-24T12:36:40.445Z,37.67
2023-05-24T12:39:18.055Z,37.71
2023-05-24T12:41:45.653Z,37.30
2023-05-24T12:44:12.888Z,37.87
2023-05-24T12:46:40.092Z,36.88
2023-05-24T12:49:07.627Z,37.87
2023-05-24T12:51:34.882Z,37.27
2023-05-24T12:54:04.877Z,36.25
2023-05-24T12:56:32.393Z,37.93
2023-05-24T12:59:00.162Z,37.92
2023-05-24T13:01:27.422Z,37.83
2023-05-24T13:03:54.963Z,37.62
2023-05-24T13:06:22.349Z,37.40
2023-05-24T13:08:49.549Z,37.32
2023-05-24T13:11:17.070Z,36.19
2023-05-24T13:13:45.904Z,36.33
2023-05-24T13:16:13.161Z,36.54
2023-05-24T13:18:40.686Z,36.93
2023-05-24T13:21:11.382Z,36.31
2023-05-24T13:23:40.253Z,37.97
2023-05-24T13:26:07.745Z,37.28
2023-05-24T13:28:35.289Z,36.57
2023-05-24T13:31:02.605Z,37.37
2023-05-24T13:33:32.716Z,36.74
2023-05-24T13:35:59.971Z,36.26
2023-05-24T13:38:27.457Z,36.91
2023-05-24T13:40:55.226Z,37.87
2023-05-24T13:43:22.916Z,36.14
2023-05-24T13:45:50.247Z,37.40
2023-05-24T13:48:17.707Z,37.36
2023-05-24T13:50:45.264Z,37.09
2023-05-24T13:53:12.661Z,37.74
2023-05-24T13:55:40.209Z,37.13
2023-05-24T13:58:07.790Z,37.59
2023-05-24T14:00:36.228Z,36.99
2023-05-24T14:03:05.298Z,36.82
2023-05-24T14:05:32.840Z,37.60
2023-05-24T14:08:06.194Z,36.82
2023-05-24T14:10:36.520Z,37.95
2023-05-24T14:13:28.997Z,37.48
2023-05-24T14:15:51.996Z,37.95
2023-05-24T14:18:19.265Z,38.97
2023-05-24T14:20:46.569Z,38.50
2023-05-24T14:23:14.073Z,38.11
2023-05-24T14:25:42.366Z,38.33
2023-05-24T14:28:09.808Z,38.32
2023-05-24T14:30:38.140Z,38.26
2023-05-24T14:33:09.285Z,38.10
2023-05-24T14:35:39.750Z,38.56
2023-05-24T14:38:08.728Z,38.15
2023-05-24T14:40:37.161Z,38.72
2023-05-24T14:43:04.986Z,39.31
2023-05-24T14:45:32.503Z,37.78
2023-05-24T14:48:01.006Z,38.51
2023-05-24T14:50:28.665Z,38.61
2023-05-24T14:52:56.228Z,38.74
2023-05-24T14:55:23.559Z,39.46
2023-05-24T14:57:51.662Z,38.93
2023-05-24T15:00:22.305Z,39.38
2023-05-24T15:02:50.023Z,39.78
2023-05-24T15:05:17.594Z,39.39
2023-05-24T15:07:44.804Z,38.96
2023-05-24T15:10:12.010Z,39.24
2023-05-24T15:12:39.513Z,39.05
2023-05-24T15:15:07.830Z,40.03
2023-05-24T15:17:35.289Z,40.34
2023-05-24T15:20:02.964Z,40.49
2023-05-24T15:22:30.338Z,39.65
2023-05-24T15:24:57.507Z,39.43
2023-05-24T15:27:24.989Z,39.49
2023-05-24T15:29:54.649Z,39.83
2023-05-24T15:32:21.932Z,39.89
2023-05-24T15:34:50.723Z,40.29
2023-05-24T15:37:19.905Z,39.65
2023-05-24T15:39:47.142Z,39.41
2023-05-24T15:42:14.708Z,39.44
2023-05-24T15:44:41.911Z,39.86
2023-05-24T15:47:09.326Z,39.64
2023-05-24T15:49:37.135Z,39.75
2023-05-24T15:52:05.145Z,40.45
2023-05-24T15:54:32.888Z,40.20
2023-05-24T15:57:03.683Z,39.91
2023-05-24T15:59:30.920Z,40.36
2023-05-24T16:01:58.148Z,39.37
2023-05-24T16:04:25.814Z,39.60
2023-05-24T16:06:52.987Z,39.56
2023-05-24T16:09:20.163Z,39.90
2023-05-24T16:11:48.917Z,39.40
2023-05-24T16:14:16.545Z,39.36
2023-05-24T16:16:44.353Z,39.20
2023-05-24T16:19:11.953Z,39.26
2023-05-24T16:21:39.412Z,40.04
2023-05-24T16:24:06.874Z,41.16
2023-05-24T16:26:34.491Z,40.92
2023-05-24T16:29:01.898Z,41.36
2023-05-24T16:31:30.082Z,41.45
2023-05-24T16:33:58.809Z,41.39
2023-05-24T16:36:27.069Z,42.41
2023-05-24T16:38:54.292Z,42.24
2023-05-24T16:41:21.850Z,42.23
2023-05-24T16:43:49.312Z,42.48
2023-05-24T16:46:16.509Z,42.27
2023-05-24T16:48:44.095Z,42.49
2023-05-24T16:51:11.351Z,42.83
2023-05-24T16:53:38.539Z,42.77
2023-05-24T16:56:06.061Z,42.98
2023-05-24T16:58:33.521Z,42.48
2023-05-24T17:01:00.793Z,42.16
2023-05-24T17:03:29.253Z,41.88
2023-05-24T17:06:01.056Z,41.70
2023-05-24T17:08:36.886Z,42.60
2023-05-24T17:11:04.618Z,42.53
2023-05-24T17:13:32.091Z,42.93
2023-05-24T17:16:00.241Z,42.39
2023-05-24T17:18:28.211Z,43.37
2023-05-24T17:21:03.235Z,43.25
2023-05-24T17:23:34.494Z,43.58
2023-05-24T17:26:02.948Z,43.65
2023-05-24T17:28:30.222Z,43.70
2023-05-24T17:30:57.971Z,44.32
2023-05-24T17:33:25.982Z,44.46
2023-05-24T17:35:56.358Z,44.50
2023-05-24T17:38:26.791Z,45.16
2023-05-24T17:40:59.301Z,45.56
2023-05-24T17:43:31.961Z,45.63
2023-05-24T17:46:04.232Z,45.74
2023-05-24T17:48:37.568Z,46.23
2023-05-24T17:51:05.996Z,46.08
2023-05-24T17:53:34.862Z,46.10
2023-05-24T17:56:02.623Z,46.66
2023-05-24T17:58:36.319Z,46.56
2023-05-24T18:01:05.257Z,46.55
2023-05-24T18:03:33.511Z,47.05
2023-05-24T18:06:01.211Z,47.17
2023-05-24T18:08:28.467Z,47.44
2023-05-24T18:10:56.063Z,47.19
2023-05-24T18:13:23.238Z,47.38
2023-05-24T18:15:50.532Z,48.18
2023-05-24T18:18:18.033Z,47.98
2023-05-24T18:20:45.346Z,48.65
2023-05-24T18:23:12.647Z,48.67
2023-05-24T18:25:40.132Z,48.96
2023-05-24T18:28:07.540Z,48.83
2023-05-24T18:30:34.722Z,49.48
2023-05-24T18:33:07.654Z,49.58
2023-05-24T18:35:35.794Z,49.29
2023-05-24T18:38:03.949Z,49.04
2023-05-24T18:40:31.209Z,49.68
2023-05-24T18:42:58.385Z,49.42
2023-05-24T18:45:25.970Z,49.52
2023-05-24T18:47:54.231Z,49.81
2023-05-24T18:50:23.443Z,49.92
2023-05-24T18:52:51.174Z,50.16
2023-05-24T18:55:18.736Z,50.48
2023-05-24T18:57:45.950Z,50.43
2023-05-24T19:00:13.842Z,50.47
2023-05-24T19:02:41.190Z,50.54
2023-05-24T19:05:08.924Z,50.99
2023-05-24T19:07:36.476Z,51.00
2023-05-24T19:10:04.114Z,50.94
2023-05-24T19:12:31.453Z,51.06
2023-05-24T19:14:59.398Z,51.09
2023-05-24T19:17:26.858Z,51.23
2023-05-24T19:19:54.335Z,51.14
2023-05-24T19:22:21.901Z,51.42
2023-05-24T19:24:49.254Z,51.34
2023-05-24T19:27:16.466Z,51.31
2023-05-24T19:29:43.970Z,51.45
2023-05-24T19:32:11.686Z,51.61
2023-05-24T19:34:42.252Z,51.70
2023-05-24T19:37:10.016Z,51.91
2023-05-24T19:39:37.319Z,51.70
2023-05-24T19:42:04.619Z,52.03
2023-05-24T19:44:32.285Z,52.11
2023-05-24T19:46:59.475Z,52.11
2023-05-24T19:49:26.679Z,52.08
2023-05-24T19:51:54.242Z,52.05
2023-05-24T19:54:21.911Z,52.44
2023-05-24T19:56:51.063Z,52.58
2023-05-24T19:59:18.569Z,52.64
2023-05-24T20:01:45.947Z,52.87
2023-05-24T20:04:13.700Z,52.98
2023-05-24T20:06:41.046Z,53.06
2023-05-24T20:09:08.602Z,53.35
2023-05-24T20:11:36.165Z,53.14
2023-05-24T20:14:03.395Z,53.09
2023-05-24T20:16:31.374Z,53.08
2023-05-24T20:18:58.943Z,53.11
2023-05-24T20:21:26.503Z,52.69
2023-05-24T20:23:58.246Z,53.05
2023-05-24T20:26:26.586Z,53.00
2023-05-24T20:28:53.923Z,53.21
2023-05-24T20:31:21.187Z,53.38
2023-05-24T20:33:49.433Z,53.54
2023-05-24T20:36:16.906Z,53.62
2023-05-24T20:38:44.214Z,53.29
2023-05-24T20:41:12.739Z,53.68
2023-05-24T20:43:39.970Z,53.82
2023-05-24T20:46:07.461Z,53.80
2023-05-24T20:48:34.958Z,53.74
2023-05-24T20:51:02.196Z,53.82
2023-05-24T20:53:29.413Z,53.90
2023-05-24T20:55:57.235Z,54.15
2023-05-24T20:58:24.425Z,54.08
2023-05-24T21:00:51.769Z,53.90
2023-05-24T21:03:19.463Z,54.12
2023-05-24T21:05:46.809Z,54.10
2023-05-24T21:08:14.106Z,54.09
2023-05-24T21:10:41.649Z,53.96
2023-05-24T21:13:08.902Z,54.01
2023-05-24T21:15:36.333Z,54.16
2023-05-24T21:18:04.029Z,54.09
2023-05-24T21:20:31.405Z,54.40
2023-05-24T21:22:58.696Z,54.28
2023-05-24T21:25:26.276Z,54.11
2023-05-24T21:27:53.491Z,54.40
2023-05-24T21:30:20.706Z,54.16
2023-05-24T21:32:48.292Z,54.26
2023-05-24T21:35:15.739Z,54.47
2023-05-24T21:37:42.918Z,54.15
2023-05-24T21:40:10.731Z,54.40
2023-05-24T21:42:38.254Z,54.80
2023-05-24T21:45:06.244Z,54.63
2023-05-24T21:47:35.368Z,54.52
2023-05-24T21:50:02.898Z,54.67
2023-05-24T21:52:30.106Z,54.81
2023-05-24T21:54:57.624Z,54.77
2023-05-24T21:57:26.434Z,55.24
2023-05-24T21:59:53.909Z,54.96
2023-05-24T22:02:21.659Z,55.11
2023-05-24T22:04:49.289Z,55.05
2023-05-24T22:07:16.474Z,55.10
2023-05-24T22:09:43.723Z,55.28
2023-05-24T22:12:11.295Z,55.35
2023-05-24T22:14:38.621Z,55.55
2023-05-24T22:17:05.816Z,55.26
2023-05-24T22:22:03.551Z,55.57
2023-05-24T22:24:30.831Z,55.32
2023-05-24T22:27:01.053Z,55.67
2023-05-24T22:29:28.472Z,55.71
2023-05-24T22:31:55.744Z,55.66
2023-05-24T22:34:27.372Z,55.71
2023-05-24T22:36:54.794Z,55.79
2023-05-24T22:39:22.031Z,55.77
2023-05-24T22:41:50.843Z,55.78
2023-05-24T22:44:18.066Z,55.69
2023-05-24T22:46:48.369Z,56.01
2023-05-24T22:49:19.655Z,55.77
2023-05-24T22:51:48.343Z,55.66
2023-05-24T22:54:16.352Z,55.97
2023-05-24T22:56:43.724Z,55.90
2023-05-24T22:59:11.187Z,56.02
2023-05-24T23:01:38.936Z,55.87
2023-05-24T23:04:19.567Z,55.96
2023-05-24T23:06:49.079Z,56.18
2023-05-24T23:09:17.609Z,56.28
2023-05-24T23:11:46.108Z,56.07
2023-05-24T23:14:14.364Z,56.20
2023-05-24T23:16:45.242Z,56.14
2023-05-24T23:19:18.100Z,56.30
2023-05-24T23:21:45.758Z,56.37
2023-05-24T23:24:14.739Z,56.12
2023-05-24T23:26:42.280Z,56.32
2023-05-24T23:29:09.923Z,56.31
2023-05-24T23:31:37.384Z,56.24
2023-05-24T23:34:04.652Z,56.32
2023-05-24T23:36:32.221Z,56.17
2023-05-24T23:38:59.455Z,56.36
2023-05-24T23:41:27.236Z,56.22
2023-05-24T23:43:54.734Z,56.10
2023-05-24T23:46:21.938Z,56.22
2023-05-24T23:48:49.229Z,56.39
2023-05-24T23:51:16.722Z,56.19
2023-05-24T23:53:43.980Z,56.03
2023-05-24T23:56:11.279Z,56.03
2023-05-24T23:58:38.794Z,55.82
